Time;durP1;ratioP1;P1;durP2;ratioP2;P2;SDS_P1;SDS_P2;PMS_P1;PMS_P2;Temp;Humidity;BMP_temperature;BMP_pressure;BME280_temperature;BME280_humidity;BME280_pressure;Samples;Min_cycle;Max_cycle;Signal;HPM_P1;HPM_P2
2021/12/20 00:01:56;;;;;;;0.55;0.20;;;;;;;;;;5032173;28;20192;-69
2021/12/20 00:04:21;;;;;;;1.35;0.32;;;;;;;;;;5033289;28;20377;-68
2021/12/20 00:06:47;;;;;;;0.10;0.00;;;;;;;;;;5033068;28;20350;-68
2021/12/20 00:09:12;;;;;;;0.22;0.20;;;;;;;;;;5033206;28;20021;-68
2021/12/20 00:11:37;;;;;;;0.40;0.10;;;;;;;;;;5031841;28;20036;-69
2021/12/20 00:14:02;;;;;;;0.00;0.00;;;;;;;;;;5033360;28;20258;-68
2021/12/20 00:16:27;;;;;;;0.73;0.30;;;;;;;;;;5033060;28;20702;-68
2021/12/20 00:18:52;;;;;;;0.10;0.07;;;;;;;;;;5032801;28;20029;-68
2021/12/20 00:21:18;;;;;;;0.10;0.10;;;;;;;;;;5032849;28;20271;-68
2021/12/20 00:23:43;;;;;;;1.25;0.30;;;;;;;;;;5032753;28;20365;-68
2021/12/20 00:26:09;;;;;;;0.00;0.00;;;;;;;;;;5033143;28;20049;-68
2021/12/20 00:28:34;;;;;;;0.10;0.10;;;;;;;;;;5032865;28;20714;-68
2021/12/20 00:30:59;;;;;;;0.30;0.10;;;;;;;;;;5032873;28;20118;-67
2021/12/20 00:33:28;;;;;;;0.67;0.10;;;;;;;;;;5032831;28;20071;-67
2021/12/20 00:35:53;;;;;;;0.50;0.20;;;;;;;;;;5032758;28;20304;-68
2021/12/20 00:41:02;;;;;;;0.53;0.10;;;;;;;;;;5032610;28;20282;-69
2021/12/20 00:43:27;;;;;;;0.32;0.10;;;;;;;;;;5032192;28;20013;-68
2021/12/20 00:45:52;;;;;;;0.57;0.17;;;;;;;;;;5032549;28;20044;-68
2021/12/20 00:48:18;;;;;;;0.63;0.30;;;;;;;;;;5032867;28;20076;-68
2021/12/20 00:50:44;;;;;;;0.40;0.20;;;;;;;;;;5031076;28;20022;-68
2021/12/20 00:53:10;;;;;;;0.40;0.20;;;;;;;;;;5032634;28;20087;-68
2021/12/20 00:55:35;;;;;;;0.35;0.20;;;;;;;;;;5032356;28;20105;-68
2021/12/20 00:58:00;;;;;;;1.03;0.10;;;;;;;;;;5032320;28;20468;-69
2021/12/20 01:00:34;;;;;;;0.25;0.00;;;;;;;;;;5032334;28;20274;-68
2021/12/20 01:02:59;;;;;;;0.43;0.10;;;;;;;;;;5032357;28;20018;-68
2021/12/20 01:05:27;;;;;;;0.20;0.00;;;;;;;;;;5032441;28;20059;-68
2021/12/20 01:07:56;;;;;;;0.82;0.28;;;;;;;;;;5032250;28;20354;-68
2021/12/20 01:10:22;;;;;;;0.20;0.10;;;;;;;;;;5032449;28;20025;-68
2021/12/20 01:12:50;;;;;;;0.35;0.10;;;;;;;;;;5032114;28;20430;-68
2021/12/20 01:15:22;;;;;;;0.93;0.10;;;;;;;;;;5032392;28;20834;-70
2021/12/20 01:17:48;;;;;;;1.02;0.20;;;;;;;;;;5030864;28;20028;-68
2021/12/20 01:20:13;;;;;;;0.40;0.10;;;;;;;;;;5031979;28;20021;-69
2021/12/20 01:22:40;;;;;;;0.93;0.20;;;;;;;;;;5031981;28;20377;-69
2021/12/20 01:25:05;;;;;;;0.28;0.13;;;;;;;;;;5031062;28;20033;-68
2021/12/20 01:27:31;;;;;;;0.50;0.13;;;;;;;;;;5032108;28;20026;-68
2021/12/20 01:29:56;;;;;;;0.00;0.00;;;;;;;;;;5032213;28;20461;-68
2021/12/20 01:32:22;;;;;;;0.10;0.10;;;;;;;;;;5032225;28;20251;-68
2021/12/20 01:34:48;;;;;;;0.30;0.00;;;;;;;;;;5031711;28;20250;-68
2021/12/20 01:37:13;;;;;;;0.83;0.20;;;;;;;;;;5032125;28;20124;-68
2021/12/20 01:39:38;;;;;;;0.55;0.43;;;;;;;;;;5031841;28;20274;-68
2021/12/20 01:42:04;;;;;;;0.43;0.00;;;;;;;;;;5032375;28;20117;-69
2021/12/20 01:44:31;;;;;;;0.25;0.00;;;;;;;;;;5032011;28;20278;-68
2021/12/20 01:46:56;;;;;;;0.10;0.00;;;;;;;;;;5032001;28;20014;-68
2021/12/20 01:49:21;;;;;;;0.50;0.03;;;;;;;;;;5032050;28;20028;-68
2021/12/20 01:52:02;;;;;;;0.10;0.00;;;;;;;;;;5031780;28;20048;-68
2021/12/20 01:54:28;;;;;;;1.60;0.05;;;;;;;;;;5031899;28;20068;-68
2021/12/20 01:56:53;;;;;;;0.43;0.20;;;;;;;;;;5035358;28;20017;-68
2021/12/20 01:59:18;;;;;;;0.65;0.20;;;;;;;;;;5035705;28;20025;-67
2021/12/20 02:01:45;;;;;;;1.73;0.47;;;;;;;;;;5035587;28;20013;-67
2021/12/20 02:04:11;;;;;;;0.32;0.17;;;;;;;;;;5035581;28;20297;-68
2021/12/20 02:06:40;;;;;;;0.57;0.30;;;;;;;;;;5035492;28;20029;-68
2021/12/20 02:09:07;;;;;;;0.52;0.10;;;;;;;;;;5035401;28;20524;-67
2021/12/20 02:11:33;;;;;;;0.32;0.22;;;;;;;;;;5035443;28;20068;-68
2021/12/20 02:13:58;;;;;;;0.40;0.20;;;;;;;;;;5035759;28;20045;-68
2021/12/20 02:16:23;;;;;;;0.85;0.30;;;;;;;;;;5035425;28;20422;-69
2021/12/20 02:18:48;;;;;;;0.52;0.10;;;;;;;;;;5035017;28;20518;-68
2021/12/20 02:21:14;;;;;;;0.10;0.10;;;;;;;;;;5034032;28;20038;-68
2021/12/20 02:23:39;;;;;;;0.80;0.20;;;;;;;;;;5035107;28;20093;-68
2021/12/20 02:26:05;;;;;;;0.15;0.05;;;;;;;;;;5035294;28;20376;-68
2021/12/20 02:28:36;;;;;;;0.35;0.10;;;;;;;;;;5035219;28;20020;-67
2021/12/20 02:39:09;;;;;;;0.22;0.20;;;;;;;;;;5035173;28;20033;-68
2021/12/20 02:41:34;;;;;;;0.65;0.10;;;;;;;;;;5034905;28;20022;-68
2021/12/20 02:44:05;;;;;;;0.10;0.10;;;;;;;;;;5035038;28;20021;-68
2021/12/20 02:49:03;;;;;;;0.55;0.10;;;;;;;;;;5034795;28;20021;-68
2021/12/20 02:51:28;;;;;;;0.45;0.10;;;;;;;;;;5033530;28;20021;-68
2021/12/20 02:53:54;;;;;;;0.40;0.17;;;;;;;;;;5033534;28;20024;-68
2021/12/20 02:56:19;;;;;;;0.30;0.10;;;;;;;;;;5034661;28;20333;-68
2021/12/20 02:58:44;;;;;;;0.52;0.10;;;;;;;;;;5034381;28;20101;-68
2021/12/20 03:01:10;;;;;;;0.10;0.10;;;;;;;;;;5034475;28;20377;-68
2021/12/20 03:03:35;;;;;;;0.40;0.20;;;;;;;;;;5034485;28;20068;-68
2021/12/20 03:06:27;;;;;;;0.40;0.15;;;;;;;;;;5034578;28;20044;-68
2021/12/20 03:08:54;;;;;;;1.02;0.20;;;;;;;;;;5030164;28;20037;-68
2021/12/20 03:11:21;;;;;;;0.43;0.20;;;;;;;;;;5033172;28;20113;-67
2021/12/20 03:13:49;;;;;;;0.38;0.10;;;;;;;;;;5034191;28;20469;-67
2021/12/20 03:16:15;;;;;;;0.85;0.20;;;;;;;;;;5034374;28;20036;-68
2021/12/20 03:18:40;;;;;;;0.40;0.10;;;;;;;;;;5034090;28;20018;-68
2021/12/20 03:21:05;;;;;;;0.50;0.27;;;;;;;;;;5034143;28;20049;-68
2021/12/20 03:23:30;;;;;;;0.38;0.10;;;;;;;;;;5034141;28;20033;-67
2021/12/20 03:25:56;;;;;;;0.97;0.33;;;;;;;;;;5034074;28;20408;-68
2021/12/20 03:28:21;;;;;;;0.20;0.17;;;;;;;;;;5034122;28;20304;-68
2021/12/20 03:30:46;;;;;;;0.45;0.10;;;;;;;;;;5033753;28;20104;-67
2021/12/20 03:33:11;;;;;;;0.20;0.10;;;;;;;;;;5034295;28;20025;-67
2021/12/20 03:35:36;;;;;;;1.73;0.10;;;;;;;;;;5033795;28;20250;-68
2021/12/20 03:38:02;;;;;;;0.30;0.13;;;;;;;;;;5033993;28;20733;-68
2021/12/20 03:40:28;;;;;;;0.43;0.15;;;;;;;;;;5033739;28;20049;-68
2021/12/20 03:42:53;;;;;;;0.00;0.00;;;;;;;;;;5033906;28;20025;-68
2021/12/20 03:45:18;;;;;;;0.35;0.03;;;;;;;;;;5033758;28;20405;-68
2021/12/20 03:47:43;;;;;;;0.47;0.20;;;;;;;;;;5033515;28;20084;-67
2021/12/20 03:50:09;;;;;;;0.10;0.10;;;;;;;;;;5033728;28;20914;-68
2021/12/20 03:52:38;;;;;;;0.43;0.35;;;;;;;;;;5033453;28;20037;-67
2021/12/20 03:55:03;;;;;;;0.10;0.03;;;;;;;;;;5033488;28;20029;-68
2021/12/20 03:57:28;;;;;;;0.65;0.43;;;;;;;;;;5033410;28;20028;-67
2021/12/20 03:59:54;;;;;;;0.17;0.00;;;;;;;;;;5033379;28;20047;-68
2021/12/20 04:02:20;;;;;;;0.28;0.08;;;;;;;;;;5032217;28;20243;-68
2021/12/20 04:04:46;;;;;;;0.82;0.30;;;;;;;;;;5033053;28;20021;-68
2021/12/20 04:07:11;;;;;;;1.00;0.10;;;;;;;;;;5032001;28;20017;-68
2021/12/20 04:09:36;;;;;;;0.20;0.00;;;;;;;;;;5033117;28;20345;-68
2021/12/20 04:12:01;;;;;;;0.80;0.10;;;;;;;;;;5033346;28;20262;-68
2021/12/20 04:14:27;;;;;;;0.75;0.10;;;;;;;;;;5033154;28;20432;-68
2021/12/20 04:16:52;;;;;;;0.10;0.07;;;;;;;;;;5033316;28;20395;-67
2021/12/20 04:19:17;;;;;;;0.38;0.15;;;;;;;;;;5032163;28;20270;-67
2021/12/20 04:21:42;;;;;;;0.80;0.20;;;;;;;;;;5032763;28;20041;-67
2021/12/20 04:24:07;;;;;;;0.98;0.17;;;;;;;;;;5032970;28;20338;-67
2021/12/20 04:26:33;;;;;;;1.00;0.30;;;;;;;;;;5032896;28;20024;-68
2021/12/20 04:28:58;;;;;;;0.67;0.20;;;;;;;;;;5031318;28;20338;-67
2021/12/20 04:31:23;;;;;;;0.10;0.05;;;;;;;;;;5032899;28;20579;-67
2021/12/20 04:33:48;;;;;;;0.35;0.10;;;;;;;;;;5032790;28;20018;-67
2021/12/20 04:36:14;;;;;;;0.70;0.10;;;;;;;;;;5032817;28;20092;-68
2021/12/20 04:38:39;;;;;;;0.20;0.10;;;;;;;;;;5032889;28;20379;-68
2021/12/20 04:41:05;;;;;;;0.25;0.10;;;;;;;;;;5032653;28;20049;-68
2021/12/20 04:43:30;;;;;;;0.50;0.10;;;;;;;;;;5032976;28;20017;-68
2021/12/20 04:45:55;;;;;;;0.73;0.30;;;;;;;;;;5031351;28;20298;-68
2021/12/20 04:48:20;;;;;;;1.10;0.20;;;;;;;;;;5032919;28;20255;-68
2021/12/20 04:50:45;;;;;;;0.77;0.20;;;;;;;;;;5032358;28;20034;-67
2021/12/20 04:53:11;;;;;;;0.10;0.10;;;;;;;;;;5031263;28;20292;-68
2021/12/20 04:55:36;;;;;;;0.30;0.10;;;;;;;;;;5032358;28;20024;-68
2021/12/20 04:58:02;;;;;;;0.30;0.00;;;;;;;;;;5032363;28;20415;-68
2021/12/20 05:00:28;;;;;;;0.10;0.08;;;;;;;;;;5032302;28;20022;-67
2021/12/20 05:02:54;;;;;;;0.25;0.10;;;;;;;;;;5032203;28;20046;-68
2021/12/20 05:05:21;;;;;;;0.73;0.20;;;;;;;;;;5032508;28;20041;-68
2021/12/20 05:07:47;;;;;;;0.47;0.15;;;;;;;;;;5032202;28;20259;-68
2021/12/20 05:10:23;;;;;;;0.45;0.10;;;;;;;;;;5032376;28;20109;-68
2021/12/20 05:12:48;;;;;;;0.20;0.10;;;;;;;;;;5032099;28;20025;-68
2021/12/20 05:15:13;;;;;;;0.40;0.10;;;;;;;;;;5032614;28;20373;-68
2021/12/20 05:17:39;;;;;;;0.65;0.10;;;;;;;;;;5032190;28;20064;-68
2021/12/20 05:20:04;;;;;;;0.57;0.20;;;;;;;;;;5032057;28;20036;-68
2021/12/20 05:22:29;;;;;;;1.10;0.20;;;;;;;;;;5032120;28;20333;-67
2021/12/20 05:24:54;;;;;;;1.00;0.10;;;;;;;;;;5032008;28;20013;-67
2021/12/20 05:27:20;;;;;;;0.67;0.10;;;;;;;;;;5032551;28;20115;-68
2021/12/20 05:29:47;;;;;;;0.10;0.00;;;;;;;;;;5032351;28;20041;-67
2021/12/20 05:32:12;;;;;;;0.60;0.15;;;;;;;;;;5036247;28;20613;-68
2021/12/20 05:34:37;;;;;;;0.20;0.00;;;;;;;;;;5036128;28;20021;-67
2021/12/20 05:37:03;;;;;;;0.20;0.00;;;;;;;;;;5036089;28;20029;-67
2021/12/20 05:39:28;;;;;;;0.20;0.10;;;;;;;;;;5036054;28;20033;-67
2021/12/20 05:41:54;;;;;;;0.55;0.17;;;;;;;;;;5036059;28;20394;-67
2021/12/20 05:44:19;;;;;;;0.38;0.10;;;;;;;;;;5036053;28;20071;-66
2021/12/20 05:46:44;;;;;;;1.03;0.20;;;;;;;;;;5035761;28;20028;-67
2021/12/20 05:49:10;;;;;;;0.05;0.00;;;;;;;;;;5035931;28;20040;-67
2021/12/20 05:51:35;;;;;;;0.15;0.10;;;;;;;;;;5035809;28;20491;-67
2021/12/20 05:54:00;;;;;;;1.53;0.10;;;;;;;;;;5035930;28;20029;-67
2021/12/20 05:56:25;;;;;;;1.17;0.23;;;;;;;;;;5035814;28;20373;-66
2021/12/20 05:58:50;;;;;;;0.97;0.10;;;;;;;;;;5035514;28;20286;-67
2021/12/20 06:01:15;;;;;;;0.87;0.20;;;;;;;;;;5035744;28;20274;-67
2021/12/20 06:03:41;;;;;;;0.98;0.10;;;;;;;;;;5035462;28;20606;-67
2021/12/20 06:06:06;;;;;;;0.23;0.10;;;;;;;;;;5035732;28;20452;-67
2021/12/20 06:08:31;;;;;;;0.38;0.08;;;;;;;;;;5035516;28;20262;-67
2021/12/20 06:10:56;;;;;;;0.47;0.20;;;;;;;;;;5035348;28;20361;-68
2021/12/20 06:13:21;;;;;;;0.20;0.00;;;;;;;;;;5035630;28;20259;-68
2021/12/20 06:15:47;;;;;;;0.30;0.10;;;;;;;;;;5035308;28;20038;-67
2021/12/20 06:18:12;;;;;;;0.37;0.13;;;;;;;;;;5035529;28;20246;-67
2021/12/20 06:20:38;;;;;;;0.88;0.10;;;;;;;;;;5034964;28;20888;-68
2021/12/20 06:23:03;;;;;;;0.13;0.00;;;;;;;;;;5035296;28;20025;-68
2021/12/20 06:25:28;;;;;;;0.30;0.15;;;;;;;;;;5035158;28;20028;-67
2021/12/20 06:27:53;;;;;;;0.53;0.13;;;;;;;;;;5035260;28;20029;-67
2021/12/20 06:30:19;;;;;;;0.27;0.00;;;;;;;;;;5035298;28;20247;-67
2021/12/20 06:32:44;;;;;;;0.20;0.05;;;;;;;;;;5034889;28;20272;-67
2021/12/20 06:35:10;;;;;;;0.32;0.10;;;;;;;;;;5035033;28;20033;-68
2021/12/20 06:37:36;;;;;;;0.10;0.00;;;;;;;;;;5034945;28;20025;-67
2021/12/20 06:40:02;;;;;;;0.10;0.00;;;;;;;;;;5035371;28;20113;-67
2021/12/20 06:42:27;;;;;;;0.17;0.05;;;;;;;;;;5033880;28;20461;-67
2021/12/20 06:44:52;;;;;;;0.10;0.03;;;;;;;;;;5034780;28;20034;-67
2021/12/20 06:47:19;;;;;;;1.17;0.25;;;;;;;;;;5034925;28;20285;-67
2021/12/20 06:49:44;;;;;;;0.82;0.28;;;;;;;;;;5034736;28;20017;-67
2021/12/20 06:52:09;;;;;;;1.17;0.10;;;;;;;;;;5034868;28;20032;-67
2021/12/20 06:54:35;;;;;;;0.52;0.03;;;;;;;;;;5034655;28;20022;-66
2021/12/20 06:57:00;;;;;;;0.30;0.10;;;;;;;;;;5034642;28;20358;-67
2021/12/20 06:59:26;;;;;;;0.22;0.00;;;;;;;;;;5034591;28;20052;-67
2021/12/20 07:01:51;;;;;;;0.30;0.10;;;;;;;;;;5037515;28;20021;-67
2021/12/20 07:04:16;;;;;;;0.40;0.00;;;;;;;;;;5037998;28;20445;-67
2021/12/20 07:06:41;;;;;;;0.05;0.03;;;;;;;;;;5035873;28;20277;-68
2021/12/20 07:09:07;;;;;;;0.20;0.08;;;;;;;;;;5012532;28;20117;-67
2021/12/20 07:11:32;;;;;;;0.85;0.08;;;;;;;;;;5017057;28;20100;-67
2021/12/20 07:13:57;;;;;;;0.20;0.10;;;;;;;;;;5031360;28;20021;-67
2021/12/20 07:16:23;;;;;;;0.65;0.15;;;;;;;;;;5031711;28;20052;-67
2021/12/20 07:18:48;;;;;;;0.47;0.20;;;;;;;;;;5034008;28;20048;-67
2021/12/20 07:21:13;;;;;;;0.30;0.15;;;;;;;;;;5034087;28;20286;-66
2021/12/20 07:23:38;;;;;;;0.20;0.10;;;;;;;;;;5032735;28;20388;-66
2021/12/20 07:26:04;;;;;;;0.90;0.20;;;;;;;;;;5014458;28;20373;-66
2021/12/20 07:28:29;;;;;;;0.15;0.03;;;;;;;;;;5014244;28;20248;-66
2021/12/20 07:30:54;;;;;;;0.50;0.10;;;;;;;;;;5014073;28;20022;-66
2021/12/20 07:33:19;;;;;;;0.10;0.00;;;;;;;;;;5014251;28;20359;-67
2021/12/20 07:35:45;;;;;;;0.20;0.10;;;;;;;;;;5014031;28;20025;-66
2021/12/20 07:38:13;;;;;;;0.30;0.20;;;;;;;;;;5014117;28;20401;-66
2021/12/20 07:40:45;;;;;;;0.55;0.20;;;;;;;;;;5013861;28;20064;-66
2021/12/20 07:43:11;;;;;;;0.13;0.10;;;;;;;;;;5014004;28;20538;-66
2021/12/20 07:45:36;;;;;;;1.33;0.10;;;;;;;;;;5013866;28;20141;-67
2021/12/20 07:48:01;;;;;;;0.98;0.40;;;;;;;;;;5014024;28;20049;-67
2021/12/20 07:50:26;;;;;;;1.30;0.55;;;;;;;;;;5032999;28;20025;-67
2021/12/20 07:52:51;;;;;;;0.83;0.50;;;;;;;;;;5034420;28;20032;-66
2021/12/20 07:55:17;;;;;;;0.90;0.50;;;;;;;;;;5041141;28;20782;-66
2021/12/20 07:57:42;;;;;;;1.15;0.80;;;;;;;;;;5033384;28;20029;-66
2021/12/20 08:00:09;;;;;;;1.23;0.95;;;;;;;;;;5036506;28;20029;-67
2021/12/20 08:02:34;;;;;;;0.80;0.60;;;;;;;;;;5039884;28;20017;-67
2021/12/20 08:04:59;;;;;;;2.17;1.00;;;;;;;;;;5048202;28;20029;-67
2021/12/20 08:07:25;;;;;;;0.80;0.70;;;;;;;;;;5040075;28;20256;-66
2021/12/20 08:09:50;;;;;;;1.00;0.50;;;;;;;;;;5043751;28;20299;-66
2021/12/20 08:12:15;;;;;;;1.45;0.63;;;;;;;;;;5036815;28;20348;-66
2021/12/20 08:14:40;;;;;;;1.05;0.60;;;;;;;;;;5046004;28;20021;-67
2021/12/20 08:17:06;;;;;;;0.90;0.40;;;;;;;;;;5036104;28;20538;-66
2021/12/20 08:19:31;;;;;;;0.82;0.55;;;;;;;;;;5045927;28;20361;-66
2021/12/20 08:21:56;;;;;;;2.23;0.73;;;;;;;;;;5035938;28;20041;-67
2021/12/20 08:24:21;;;;;;;0.67;0.50;;;;;;;;;;5038138;28;20258;-67
2021/12/20 08:26:47;;;;;;;0.73;0.40;;;;;;;;;;5039628;28;20254;-66
2021/12/20 08:29:12;;;;;;;1.35;0.52;;;;;;;;;;5046398;28;20245;-66
2021/12/20 08:31:38;;;;;;;0.93;0.50;;;;;;;;;;5038324;28;20018;-66
2021/12/20 08:34:03;;;;;;;0.50;0.45;;;;;;;;;;5039310;28;20067;-66
2021/12/20 08:36:29;;;;;;;0.57;0.30;;;;;;;;;;5031634;28;20025;-66
2021/12/20 08:38:54;;;;;;;0.98;0.60;;;;;;;;;;5035469;28;20034;-66
2021/12/20 08:41:19;;;;;;;0.57;0.40;;;;;;;;;;5048908;28;20407;-66
2021/12/20 08:43:44;;;;;;;0.80;0.40;;;;;;;;;;5050467;28;20021;-66
2021/12/20 08:46:10;;;;;;;1.00;0.20;;;;;;;;;;5050641;28;20250;-66
2021/12/20 08:48:35;;;;;;;1.17;0.50;;;;;;;;;;5050455;28;20321;-66
2021/12/20 08:51:01;;;;;;;1.55;0.40;;;;;;;;;;5050427;28;20040;-66
2021/12/20 08:53:26;;;;;;;2.50;0.45;;;;;;;;;;5050567;28;20155;-66
2021/12/20 08:55:51;;;;;;;1.67;0.35;;;;;;;;;;5044385;28;20021;-66
2021/12/20 08:58:17;;;;;;;0.50;0.20;;;;;;;;;;5032329;28;20469;-66
2021/12/20 09:00:42;;;;;;;0.93;0.30;;;;;;;;;;5032176;28;20286;-66
2021/12/20 09:03:07;;;;;;;0.00;0.00;;;;;;;;;;5032490;28;20017;-66
2021/12/20 09:05:33;;;;;;;0.45;0.15;;;;;;;;;;5031801;28;20286;-66
2021/12/20 09:08:01;;;;;;;0.50;0.20;;;;;;;;;;5032726;28;20108;-66
2021/12/20 09:10:26;;;;;;;1.23;0.40;;;;;;;;;;5032286;28;20017;-66
2021/12/20 09:12:51;;;;;;;0.52;0.13;;;;;;;;;;5032114;28;20084;-66
2021/12/20 09:15:17;;;;;;;0.60;0.20;;;;;;;;;;5032328;28;20479;-67
2021/12/20 09:17:47;;;;;;;0.57;0.20;;;;;;;;;;5032110;28;20326;-67
2021/12/20 09:20:15;;;;;;;0.90;0.20;;;;;;;;;;5032022;28;20467;-66
2021/12/20 09:22:57;;;;;;;0.68;0.28;;;;;;;;;;5032241;28;20373;-66
2021/12/20 09:25:24;;;;;;;1.23;0.40;;;;;;;;;;5032219;28;20445;-66
2021/12/20 09:27:50;;;;;;;0.68;0.32;;;;;;;;;;5032025;28;20028;-65
2021/12/20 09:30:15;;;;;;;0.80;0.20;;;;;;;;;;5031458;28;20025;-66
2021/12/20 09:32:40;;;;;;;0.43;0.15;;;;;;;;;;5031816;28;20068;-66
2021/12/20 09:35:06;;;;;;;0.52;0.17;;;;;;;;;;5032041;28;20488;-66
2021/12/20 09:37:31;;;;;;;1.48;0.20;;;;;;;;;;5032046;28;20025;-66
2021/12/20 09:39:59;;;;;;;0.70;0.20;;;;;;;;;;5032002;28;20025;-66
2021/12/20 09:42:24;;;;;;;0.10;0.08;;;;;;;;;;5032030;28;20029;-66
2021/12/20 09:44:50;;;;;;;0.10;0.10;;;;;;;;;;5031800;28;20017;-66
2021/12/20 09:47:16;;;;;;;0.25;0.10;;;;;;;;;;5031980;28;20274;-66
2021/12/20 09:49:41;;;;;;;0.57;0.10;;;;;;;;;;5031890;28;20104;-66
2021/12/20 09:52:07;;;;;;;2.07;0.43;;;;;;;;;;5031989;28;20056;-67
2021/12/20 09:54:32;;;;;;;0.28;0.10;;;;;;;;;;5031855;28;20243;-66
2021/12/20 09:56:58;;;;;;;0.68;0.10;;;;;;;;;;5032046;28;20366;-66
2021/12/20 09:59:26;;;;;;;0.10;0.00;;;;;;;;;;5031877;28;20025;-66
2021/12/20 10:01:53;;;;;;;0.68;0.10;;;;;;;;;;5031839;28;20018;-66
2021/12/20 10:04:18;;;;;;;0.20;0.10;;;;;;;;;;5031794;28;20013;-66
2021/12/20 10:06:43;;;;;;;0.32;0.10;;;;;;;;;;5031622;28;20024;-66
2021/12/20 10:09:12;;;;;;;0.55;0.10;;;;;;;;;;5031728;28;20021;-66
2021/12/20 10:11:38;;;;;;;0.38;0.00;;;;;;;;;;5031636;28;20021;-66
2021/12/20 10:14:13;;;;;;;0.52;0.10;;;;;;;;;;5031853;28;20029;-66
2021/12/20 10:16:39;;;;;;;0.20;0.20;;;;;;;;;;5031774;28;20022;-66
2021/12/20 10:19:09;;;;;;;1.05;0.15;;;;;;;;;;5035285;28;20390;-66
2021/12/20 10:21:39;;;;;;;0.52;0.10;;;;;;;;;;5035107;28;20148;-66
2021/12/20 10:24:04;;;;;;;0.20;0.10;;;;;;;;;;5035827;28;20024;-66
2021/12/20 10:26:36;;;;;;;0.93;0.20;;;;;;;;;;5035173;28;20461;-66
2021/12/20 10:29:01;;;;;;;0.63;0.45;;;;;;;;;;5035177;28;20025;-66
2021/12/20 10:31:27;;;;;;;0.08;0.00;;;;;;;;;;5033839;28;20063;-66
2021/12/20 10:33:57;;;;;;;0.57;0.30;;;;;;;;;;5035117;28;20052;-66
2021/12/20 10:36:22;;;;;;;0.30;0.10;;;;;;;;;;5035114;28;20286;-66
2021/12/20 10:38:56;;;;;;;0.30;0.10;;;;;;;;;;5035113;28;20017;-66
2021/12/20 10:41:33;;;;;;;1.23;0.10;;;;;;;;;;5035006;28;20021;-66
2021/12/20 10:44:01;;;;;;;0.47;0.20;;;;;;;;;;5035281;28;20018;-66
2021/12/20 10:46:28;;;;;;;2.42;0.20;;;;;;;;;;5033546;28;20052;-66
2021/12/20 10:49:14;;;;;;;0.40;0.10;;;;;;;;;;5034696;28;20100;-66
2021/12/20 10:51:41;;;;;;;0.50;0.00;;;;;;;;;;5033809;28;20384;-66
2021/12/20 10:54:10;;;;;;;0.43;0.08;;;;;;;;;;5028940;28;20034;-66
2021/12/20 10:56:37;;;;;;;0.63;0.20;;;;;;;;;;5014839;28;20067;-66
2021/12/20 10:59:06;;;;;;;0.20;0.03;;;;;;;;;;5036343;28;20052;-66
2021/12/20 11:04:27;;;;;;;0.85;0.15;;;;;;;;;;5034509;28;20030;-66
2021/12/20 11:09:37;;;;;;;0.43;0.10;;;;;;;;;;5050322;28;20021;-66
2021/12/20 11:12:04;;;;;;;0.40;0.10;;;;;;;;;;5046647;28;20025;-66
2021/12/20 11:14:40;;;;;;;0.20;0.08;;;;;;;;;;5033325;28;20028;-66
2021/12/20 11:17:06;;;;;;;0.05;0.00;;;;;;;;;;5033373;28;20060;-66
2021/12/20 11:19:36;;;;;;;1.52;0.30;;;;;;;;;;5032014;28;20032;-66
2021/12/20 11:22:07;;;;;;;0.00;0.00;;;;;;;;;;5033274;28;20083;-66
2021/12/20 11:24:34;;;;;;;0.52;0.00;;;;;;;;;;5033319;28;20013;-66
2021/12/20 11:27:00;;;;;;;0.30;0.20;;;;;;;;;;5033401;28;20033;-65
2021/12/20 11:29:26;;;;;;;0.35;0.13;;;;;;;;;;5032764;28;20021;-65
2021/12/20 11:31:52;;;;;;;0.68;0.17;;;;;;;;;;5034038;28;20021;-66
2021/12/20 11:34:17;;;;;;;0.47;0.00;;;;;;;;;;5033967;28;20029;-66
2021/12/20 11:36:42;;;;;;;0.10;0.00;;;;;;;;;;5033754;28;20073;-65
2021/12/20 11:39:08;;;;;;;1.73;0.20;;;;;;;;;;5032523;28;20100;-65
2021/12/20 11:41:33;;;;;;;1.10;0.20;;;;;;;;;;5032840;28;20368;-66
2021/12/20 11:44:00;;;;;;;0.32;0.10;;;;;;;;;;5033865;28;20030;-66
2021/12/20 11:46:29;;;;;;;0.35;0.10;;;;;;;;;;5033779;28;20423;-66
2021/12/20 11:48:55;;;;;;;0.57;0.13;;;;;;;;;;5032488;28;20214;-66
2021/12/20 11:51:20;;;;;;;0.98;0.13;;;;;;;;;;5033779;28;20531;-66
2021/12/20 11:53:45;;;;;;;1.17;0.37;;;;;;;;;;5033541;28;20109;-65
2021/12/20 11:56:11;;;;;;;0.32;0.10;;;;;;;;;;5033685;28;20028;-66
2021/12/20 11:58:38;;;;;;;0.67;0.10;;;;;;;;;;5033391;28;20059;-66
2021/12/20 12:01:13;;;;;;;0.40;0.10;;;;;;;;;;5033277;28;20270;-66
2021/12/20 12:03:39;;;;;;;0.25;0.22;;;;;;;;;;5033127;28;20064;-66
2021/12/20 12:06:08;;;;;;;0.32;0.10;;;;;;;;;;5033454;28;20013;-66
2021/12/20 12:08:42;;;;;;;0.40;0.10;;;;;;;;;;5033287;28;20026;-66
2021/12/20 12:11:07;;;;;;;0.08;0.00;;;;;;;;;;5033244;28;20033;-66
2021/12/20 12:14:00;;;;;;;0.20;0.10;;;;;;;;;;5031913;28;20036;-66
2021/12/20 12:16:45;;;;;;;0.28;0.10;;;;;;;;;;5033205;28;20028;-65
2021/12/20 12:19:11;;;;;;;0.40;0.08;;;;;;;;;;5031767;28;20111;-66
2021/12/20 12:21:39;;;;;;;0.73;0.10;;;;;;;;;;5032822;28;20168;-66
2021/12/20 12:24:09;;;;;;;0.20;0.20;;;;;;;;;;5033049;28;20014;-66
2021/12/20 12:26:39;;;;;;;0.32;0.00;;;;;;;;;;5031853;28;20025;-66
2021/12/20 12:29:05;;;;;;;0.30;0.10;;;;;;;;;;5031628;28;20472;-65
2021/12/20 12:31:49;;;;;;;0.63;0.10;;;;;;;;;;5032673;28;20044;-66
2021/12/20 12:34:14;;;;;;;0.25;0.00;;;;;;;;;;5032148;28;20029;-66
2021/12/20 12:36:41;;;;;;;0.20;0.08;;;;;;;;;;5029389;28;20452;-67
2021/12/20 12:39:28;;;;;;;0.28;0.10;;;;;;;;;;5027223;28;20044;-65
2021/12/20 12:41:57;;;;;;;0.55;0.10;;;;;;;;;;5031565;28;20100;-66
2021/12/20 12:44:24;;;;;;;0.73;0.10;;;;;;;;;;5031748;28;20495;-66
2021/12/20 12:47:12;;;;;;;0.40;0.08;;;;;;;;;;5030513;28;20025;-66
2021/12/20 12:49:39;;;;;;;0.60;0.13;;;;;;;;;;5032867;28;20040;-66
2021/12/20 12:52:04;;;;;;;0.55;0.10;;;;;;;;;;5033129;28;20022;-66
2021/12/20 12:54:32;;;;;;;0.20;0.17;;;;;;;;;;5031487;28;20086;-66
2021/12/20 12:57:10;;;;;;;0.52;0.20;;;;;;;;;;5030438;28;20369;-65
2021/12/20 12:59:47;;;;;;;0.50;0.10;;;;;;;;;;5032000;28;20026;-66
2021/12/20 13:02:15;;;;;;;0.20;0.20;;;;;;;;;;5030469;28;20415;-66
2021/12/20 13:04:44;;;;;;;0.22;0.10;;;;;;;;;;5028690;28;20045;-65
2021/12/20 13:07:09;;;;;;;1.80;0.05;;;;;;;;;;5028796;28;20018;-66
2021/12/20 13:09:43;;;;;;;0.20;0.00;;;;;;;;;;5027914;28;20650;-65
2021/12/20 13:12:17;;;;;;;0.20;0.10;;;;;;;;;;5031905;28;20673;-65
2021/12/20 13:15:11;;;;;;;0.52;0.10;;;;;;;;;;5031360;28;20019;-65
2021/12/20 13:17:39;;;;;;;0.50;0.20;;;;;;;;;;5031793;28;20096;-66
2021/12/20 13:20:20;;;;;;;0.20;0.00;;;;;;;;;;5023943;28;20033;-66
2021/12/20 13:23:04;;;;;;;0.03;0.00;;;;;;;;;;5030564;28;20025;-66
2021/12/20 13:25:31;;;;;;;0.55;0.17;;;;;;;;;;5036532;28;20020;-66
2021/12/20 13:27:57;;;;;;;1.45;0.15;;;;;;;;;;5021472;28;20045;-67
2021/12/20 13:30:29;;;;;;;0.00;0.00;;;;;;;;;;5031940;28;20111;-66
2021/12/20 13:32:57;;;;;;;0.45;0.10;;;;;;;;;;5030734;28;20534;-65
2021/12/20 13:35:23;;;;;;;0.10;0.00;;;;;;;;;;5031394;28;20034;-66
2021/12/20 13:37:50;;;;;;;0.63;0.10;;;;;;;;;;5031869;28;20033;-65
2021/12/20 13:40:15;;;;;;;0.70;0.10;;;;;;;;;;5029724;28;20420;-65
2021/12/20 13:42:47;;;;;;;0.30;0.00;;;;;;;;;;5032613;28;20025;-65
2021/12/20 13:45:12;;;;;;;0.65;0.10;;;;;;;;;;5032000;28;20024;-65
2021/12/20 13:47:40;;;;;;;0.30;0.10;;;;;;;;;;5031665;28;20026;-65
2021/12/20 13:50:18;;;;;;;0.17;0.10;;;;;;;;;;5031565;28;20032;-66
2021/12/20 13:52:46;;;;;;;0.90;0.10;;;;;;;;;;5033090;28;20048;-65
2021/12/20 13:55:12;;;;;;;0.65;0.08;;;;;;;;;;5033851;28;20527;-66
2021/12/20 13:57:38;;;;;;;0.73;0.13;;;;;;;;;;5035125;28;20021;-65
2021/12/20 14:00:06;;;;;;;0.90;0.30;;;;;;;;;;5034965;28;20041;-66
2021/12/20 14:02:35;;;;;;;0.10;0.05;;;;;;;;;;5051629;28;20029;-66
2021/12/20 14:05:13;;;;;;;0.20;0.10;;;;;;;;;;5036140;28;20376;-66
2021/12/20 14:07:42;;;;;;;0.10;0.00;;;;;;;;;;5044531;28;20468;-66
2021/12/20 14:10:08;;;;;;;0.50;0.10;;;;;;;;;;5038524;28;20416;-66
2021/12/20 14:12:34;;;;;;;0.17;0.10;;;;;;;;;;5035130;28;20025;-66
2021/12/20 14:15:06;;;;;;;0.35;0.20;;;;;;;;;;5034766;28;20061;-66
2021/12/20 14:17:51;;;;;;;0.28;0.00;;;;;;;;;;5035307;28;20029;-65
2021/12/20 14:20:16;;;;;;;0.90;0.30;;;;;;;;;;5035086;28;20472;-65
2021/12/20 14:22:51;;;;;;;0.38;0.20;;;;;;;;;;5034603;28;20022;-65
2021/12/20 14:25:17;;;;;;;0.40;0.10;;;;;;;;;;5034746;28;20053;-66
2021/12/20 14:27:57;;;;;;;0.63;0.00;;;;;;;;;;5035143;28;20041;-66
2021/12/20 14:30:22;;;;;;;0.80;0.10;;;;;;;;;;5034897;28;20030;-65
2021/12/20 14:32:48;;;;;;;0.28;0.10;;;;;;;;;;5034673;28;20083;-65
2021/12/20 14:35:33;;;;;;;0.52;0.10;;;;;;;;;;5038290;28;20034;-65
2021/12/20 14:37:59;;;;;;;0.82;0.20;;;;;;;;;;5035653;28;20415;-67
2021/12/20 14:40:42;;;;;;;7.60;0.88;;;;;;;;;;5035146;28;20033;-68
2021/12/20 14:43:11;;;;;;;2.90;0.20;;;;;;;;;;5030903;28;20131;-69
2021/12/20 14:45:36;;;;;;;0.63;0.10;;;;;;;;;;5015337;28;20028;-66
2021/12/20 14:48:15;;;;;;;1.75;0.00;;;;;;;;;;5015225;28;20369;-70
2021/12/20 14:50:44;;;;;;;3.83;0.30;;;;;;;;;;5013813;28;20053;-67
2021/12/20 14:53:16;;;;;;;0.95;0.20;;;;;;;;;;5019375;28;20022;-67
2021/12/20 14:55:41;;;;;;;0.65;0.30;;;;;;;;;;5034662;28;20541;-66
2021/12/20 14:58:06;;;;;;;1.75;0.43;;;;;;;;;;5034350;28;20037;-66
2021/12/20 15:00:31;;;;;;;0.20;0.00;;;;;;;;;;5034168;28;20372;-68
2021/12/20 15:02:57;;;;;;;0.00;0.00;;;;;;;;;;5033759;28;20055;-68